Time,TemperatureF,DewpointF,PressureIn,WindDirection,WindDirectionDegrees,WindSpeedMPH,WindSpeedGustMPH,Humidity,HourlyPrecipIn,Conditions,Clouds,dailyrainin,SoftwareType,DateUTC
2013-01-30 00:02:00,32.0,31.0,-100.00,North,10,24.0,30.0,95,0.68,,,-99.99,,2013-01-30 06:02:00,
2013-01-30 00:11:00,32.0,31.0,-100.00,NNE,15,21.0,28.0,95,0.68,,,-99.99,,2013-01-30 06:11:00,
2013-01-30 00:21:00,32.0,31.0,-100.00,NNE,15,21.0,27.0,95,0.71,,,-99.99,,2013-01-30 06:21:00,
2013-01-30 00:32:00,32.0,31.0,-100.00,North,10,20.0,27.0,96,0.96,,,-99.99,,2013-01-30 06:32:00,
2013-01-30 00:41:00,32.0,31.0,-100.00,North,10,20.0,27.0,96,0.96,,,-99.99,,2013-01-30 06:41:00,
2013-01-30 00:51:00,31.0,31.0,-100.00,NNE,20,18.0,27.0,96,1.40,,,-99.99,,2013-01-30 06:51:00,
2013-01-30 01:02:00,31.0,31.0,-100.00,NNE,20,18.0,27.0,96,1.40,,,-99.99,,2013-01-30 07:02:00,
2013-01-30 01:11:00,31.0,31.0,-100.00,North,10,17.0,21.0,97,2.06,,,-99.99,,2013-01-30 07:11:00,
2013-01-30 01:21:00,31.0,31.0,-100.00,NNE,15,20.0,24.0,97,2.64,,,-99.99,,2013-01-30 07:21:00,
2013-01-30 01:32:00,30.0,30.0,-100.00,North,10,24.0,29.0,97,0.10,,,-99.99,,2013-01-30 07:32:00,
2013-01-30 01:41:00,30.0,30.0,-100.00,North,10,24.0,29.0,97,0.10,,,-99.99,,2013-01-30 07:41:00,
2013-01-30 01:52:00,29.0,29.0,-100.00,NNE,15,23.0,32.0,97,0.14,,,-99.99,,2013-01-30 07:52:00,
2013-01-30 02:01:00,29.0,29.0,-100.00,NNE,15,23.0,32.0,97,0.14,,,-99.99,,2013-01-30 08:01:00,
2013-01-30 02:11:00,29.0,29.0,-100.00,NNE,20,24.0,33.0,97,0.21,,,-99.99,,2013-01-30 08:11:00,
2013-01-30 02:21:00,29.0,28.0,-100.00,NNE,20,28.0,35.0,97,0.31,,,-99.99,,2013-01-30 08:21:00,
2013-01-30 02:32:00,28.0,28.0,-100.00,North,5,26.0,34.0,98,0.00,,,-99.99,,2013-01-30 08:32:00,
2013-01-30 02:42:00,28.0,28.0,-100.00,North,5,26.0,34.0,98,0.00,,,-99.99,,2013-01-30 08:42:00,
2013-01-30 02:52:00,28.0,27.0,-100.00,North,0,22.0,28.0,98,0.00,,,-99.99,,2013-01-30 08:52:00,
2013-01-30 03:01:00,28.0,27.0,-100.00,North,0,22.0,28.0,98,0.00,,,-99.99,,2013-01-30 09:01:00,
2013-01-30 03:11:00,27.0,27.0,-100.00,North,0,24.0,30.0,98,0.00,,,-99.99,,2013-01-30 09:11:00,
2013-01-30 03:21:00,27.0,27.0,-100.00,North,0,24.0,34.0,98,0.00,,,-99.99,,2013-01-30 09:21:00,
2013-01-30 03:32:00,27.0,27.0,-100.00,North,0,26.0,33.0,98,0.00,,,-99.99,,2013-01-30 09:32:00,
2013-01-30 03:41:00,27.0,27.0,-100.00,North,0,26.0,33.0,98,0.00,,,-99.99,,2013-01-30 09:41:00,
2013-01-30 03:51:00,27.0,26.0,-100.00,North,0,21.0,30.0,97,1.69,,,-99.99,,2013-01-30 09:51:00,
2013-01-30 04:01:00,27.0,26.0,-100.00,North,0,21.0,30.0,97,1.69,,,-99.99,,2013-01-30 10:01:00,
2013-01-30 04:11:00,26.0,26.0,-100.00,North,0,27.0,37.0,97,1.37,,,-99.99,,2013-01-30 10:11:00,
2013-01-30 04:21:00,26.0,25.0,-100.00,North,0,20.0,30.0,97,1.23,,,-99.99,,2013-01-30 10:21:00,
2013-01-30 04:32:00,26.0,25.0,-100.00,North,5,26.0,35.0,97,0.24,,,-99.99,,2013-01-30 10:32:00,
2013-01-30 04:41:00,26.0,25.0,-100.00,North,5,26.0,35.0,97,0.24,,,-99.99,,2013-01-30 10:41:00,
2013-01-30 04:52:00,25.0,24.0,-100.00,North,0,26.0,31.0,97,0.20,,,-99.99,,2013-01-30 10:52:00,
2013-01-30 05:02:00,25.0,24.0,-100.00,North,0,26.0,31.0,97,0.20,,,-99.99,,2013-01-30 11:02:00,
2013-01-30 05:11:00,25.0,24.0,-100.00,North,0,24.0,34.0,97,0.16,,,-99.99,,2013-01-30 11:11:00,
2013-01-30 05:22:00,25.0,24.0,-100.00,North,0,19.0,32.0,97,0.20,,,-99.99,,2013-01-30 11:22:00,
2013-01-30 05:32:00,24.0,24.0,-100.00,North,5,26.0,35.0,97,0.07,,,-99.99,,2013-01-30 11:32:00,
2013-01-30 05:42:00,24.0,24.0,-100.00,North,5,26.0,35.0,97,0.07,,,-99.99,,2013-01-30 11:42:00,
2013-01-30 05:52:00,24.0,23.0,-100.00,North,10,27.0,35.0,97,0.07,,,-99.99,,2013-01-30 11:52:00,
2013-01-30 06:02:00,24.0,23.0,-100.00,North,10,27.0,35.0,97,0.07,,,-99.99,,2013-01-30 12:02:00,
2013-01-30 06:12:00,24.0,23.0,-100.00,North,0,23.0,30.0,97,0.10,,,-99.99,,2013-01-30 12:12:00,
2013-01-30 06:22:00,24.0,23.0,-100.00,North,10,26.0,32.0,96,0.04,,,-99.99,,2013-01-30 12:22:00,
2013-01-30 06:32:00,23.0,22.0,-100.00,North,10,24.0,34.0,96,0.04,,,-99.99,,2013-01-30 12:32:00,
2013-01-30 06:42:00,23.0,22.0,-100.00,North,10,24.0,34.0,96,0.04,,,-99.99,,2013-01-30 12:42:00,
2013-01-30 07:03:00,24.0,23.0,-100.00,North,10,17.0,23.0,96,0.03,,,-99.99,,2013-01-30 13:03:00,
2013-01-30 07:12:00,23.0,22.0,-100.00,North,5,26.0,35.0,95,0.01,,,-99.99,,2013-01-30 13:12:00,
2013-01-30 07:22:00,23.0,21.0,-100.00,North,0,30.0,36.0,93,0.03,,,-99.99,,2013-01-30 13:22:00,
2013-01-30 07:32:00,23.0,21.0,-100.00,North,0,29.0,37.0,91,0.01,,,-99.99,,2013-01-30 13:32:00,
2013-01-30 07:42:00,23.0,21.0,-100.00,North,0,29.0,37.0,91,0.01,,,-99.99,,2013-01-30 13:42:00,
2013-01-30 07:52:00,23.0,20.0,-100.00,North,0,25.0,34.0,88,0.01,,,-99.99,,2013-01-30 13:52:00,
2013-01-30 08:02:00,23.0,20.0,-100.00,North,0,25.0,34.0,88,0.01,,,-99.99,,2013-01-30 14:02:00,
2013-01-30 08:12:00,23.0,20.0,-100.00,North,0,24.0,30.0,85,0.00,,,-99.99,,2013-01-30 14:12:00,
2013-01-30 08:22:00,23.0,19.0,-100.00,North,350,26.0,33.0,83,0.01,,,-99.99,,2013-01-30 14:22:00,
2013-01-30 08:33:00,23.0,18.0,-100.00,North,355,26.0,34.0,81,0.01,,,-99.99,,2013-01-30 14:33:00,
2013-01-30 08:42:00,23.0,18.0,-100.00,North,355,26.0,34.0,81,0.01,,,-99.99,,2013-01-30 14:42:00,
2013-01-30 08:52:00,24.0,18.0,-100.00,North,355,22.0,32.0,78,0.00,,,-99.99,,2013-01-30 14:52:00,
2013-01-30 09:03:00,24.0,18.0,-100.00,North,355,22.0,32.0,78,0.00,,,-99.99,,2013-01-30 15:03:00,
2013-01-30 09:12:00,24.0,17.0,-100.00,North,355,25.0,32.0,76,0.00,,,-99.99,,2013-01-30 15:12:00,
2013-01-30 09:23:00,24.0,17.0,-100.00,North,0,23.0,32.0,76,0.00,,,-99.99,,2013-01-30 15:23:00,
2013-01-30 09:33:00,24.0,17.0,-100.00,North,0,21.0,31.0,74,0.00,,,-99.99,,2013-01-30 15:33:00,
2013-01-30 09:43:00,24.0,17.0,-100.00,North,0,21.0,31.0,74,0.00,,,-99.99,,2013-01-30 15:43:00,
2013-01-30 09:52:00,23.0,17.0,-100.00,North,355,23.0,32.0,76,0.00,,,-99.99,,2013-01-30 15:52:00,
2013-01-30 10:03:00,23.0,17.0,-100.00,North,355,23.0,32.0,76,0.00,,,-99.99,,2013-01-30 16:03:00,
2013-01-30 10:12:00,23.0,17.0,-100.00,North,350,22.0,30.0,75,0.00,,,-99.99,,2013-01-30 16:12:00,
2013-01-30 10:23:00,23.0,16.0,-100.00,North,350,23.0,35.0,75,0.00,,,-99.99,,2013-01-30 16:23:00,
2013-01-30 10:32:00,22.0,15.0,-100.00,North,350,26.0,37.0,70,0.00,,,-99.99,,2013-01-30 16:32:00,
2013-01-30 10:42:00,22.0,15.0,-100.00,North,350,26.0,37.0,70,0.00,,,-99.99,,2013-01-30 16:42:00,
2013-01-30 10:52:00,23.0,15.0,-100.00,North,355,22.0,29.0,69,0.00,,,-99.99,,2013-01-30 16:52:00,
2013-01-30 11:02:00,23.0,15.0,-100.00,North,355,22.0,29.0,69,0.00,,,-99.99,,2013-01-30 17:02:00,
2013-01-30 11:12:00,23.0,14.0,-100.00,North,350,20.0,30.0,68,0.00,,,-99.99,,2013-01-30 17:12:00,
2013-01-30 11:22:00,24.0,14.0,-100.00,NNW,345,17.0,31.0,67,0.00,,,-99.99,,2013-01-30 17:22:00,
2013-01-30 11:32:00,24.0,14.0,-100.00,North,350,21.0,31.0,64,0.00,,,-99.99,,2013-01-30 17:32:00,
2013-01-30 11:42:00,24.0,14.0,-100.00,North,350,21.0,31.0,64,0.00,,,-99.99,,2013-01-30 17:42:00,
2013-01-30 11:53:00,24.0,14.0,-100.00,North,355,21.0,34.0,63,0.00,,,-99.99,,2013-01-30 17:53:00,
2013-01-30 12:02:00,24.0,14.0,-100.00,North,355,21.0,34.0,63,0.00,,,-99.99,,2013-01-30 18:02:00,
2013-01-30 12:12:00,24.0,14.0,-100.00,North,355,21.0,30.0,63,0.00,,,-99.99,,2013-01-30 18:12:00,
2013-01-30 12:22:00,24.0,14.0,-100.00,North,355,22.0,27.0,63,0.00,,,-99.99,,2013-01-30 18:22:00,
2013-01-30 12:33:00,24.0,14.0,-100.00,NNW,340,26.0,32.0,65,0.00,,,-99.99,,2013-01-30 18:33:00,
2013-01-30 12:42:00,24.0,14.0,-100.00,NNW,340,26.0,32.0,65,0.00,,,-99.99,,2013-01-30 18:42:00,
2013-01-30 12:52:00,24.0,14.0,-100.00,North,355,23.0,30.0,64,0.00,,,-99.99,,2013-01-30 18:52:00,
2013-01-30 13:02:00,24.0,14.0,-100.00,North,350,23.0,29.0,63,0.00,,,-99.99,,2013-01-30 19:02:00,
2013-01-30 13:12:00,24.0,14.0,-100.00,North,350,23.0,29.0,63,0.00,,,-99.99,,2013-01-30 19:12:00,
2013-01-30 13:22:00,25.0,15.0,-100.00,NNW,340,21.0,26.0,64,0.00,,,-99.99,,2013-01-30 19:22:00,
2013-01-30 13:32:00,24.0,13.0,-100.00,NNW,345,24.0,31.0,61,0.00,,,-99.99,,2013-01-30 19:32:00,
2013-01-30 13:42:00,24.0,13.0,-100.00,NNW,345,24.0,31.0,61,0.00,,,-99.99,,2013-01-30 19:42:00,
2013-01-30 13:53:00,25.0,14.0,-100.00,North,350,22.0,29.0,62,0.00,,,-99.99,,2013-01-30 19:53:00,
2013-01-30 14:03:00,25.0,14.0,-100.00,North,350,22.0,29.0,62,0.00,,,-99.99,,2013-01-30 20:03:00,
2013-01-30 14:12:00,25.0,13.0,-100.00,NNW,340,23.0,29.0,61,0.00,,,-99.99,,2013-01-30 20:12:00,
2013-01-30 14:22:00,25.0,13.0,-100.00,NNW,340,26.0,30.0,61,0.00,,,-99.99,,2013-01-30 20:22:00,
2013-01-30 14:33:00,26.0,13.0,-100.00,North,355,21.0,27.0,59,0.00,,,-99.99,,2013-01-30 20:33:00,
2013-01-30 14:42:00,26.0,13.0,-100.00,North,355,21.0,27.0,59,0.00,,,-99.99,,2013-01-30 20:42:00,
2013-01-30 14:52:00,25.0,13.0,-100.00,NNW,345,22.0,30.0,59,0.00,,,-99.99,,2013-01-30 20:52:00,
2013-01-30 15:03:00,25.0,13.0,-100.00,NNW,345,22.0,30.0,59,0.00,,,-99.99,,2013-01-30 21:03:00,
2013-01-30 15:12:00,25.0,12.0,-100.00,North,355,19.0,27.0,59,0.00,,,-99.99,,2013-01-30 21:12:00,
2013-01-30 15:22:00,25.0,12.0,-100.00,North,350,21.0,26.0,58,0.00,,,-99.99,,2013-01-30 21:22:00,
2013-01-30 15:32:00,25.0,13.0,-100.00,NNW,330,20.0,26.0,60,0.00,,,-99.99,,2013-01-30 21:32:00,
2013-01-30 15:42:00,25.0,13.0,-100.00,NNW,330,20.0,26.0,60,0.00,,,-99.99,,2013-01-30 21:42:00,
2013-01-30 15:52:00,24.0,13.0,-100.00,NNW,335,19.0,24.0,60,0.00,,,-99.99,,2013-01-30 21:52:00,
2013-01-30 16:03:00,24.0,13.0,-100.00,NNW,335,19.0,24.0,60,0.00,,,-99.99,,2013-01-30 22:03:00,
2013-01-30 16:12:00,24.0,12.0,-100.00,NNW,335,20.0,25.0,59,0.00,,,-99.99,,2013-01-30 22:12:00,
2013-01-30 16:22:00,24.0,12.0,-100.00,NNW,340,21.0,29.0,60,0.00,,,-99.99,,2013-01-30 22:22:00,
2013-01-30 16:32:00,24.0,12.0,-100.00,NNW,335,17.0,24.0,60,0.00,,,-99.99,,2013-01-30 22:32:00,
2013-01-30 16:42:00,24.0,12.0,-100.00,NNW,335,17.0,24.0,60,0.00,,,-99.99,,2013-01-30 22:42:00,
2013-01-30 16:52:00,24.0,12.0,-100.00,NNW,330,17.0,24.0,60,0.00,,,-99.99,,2013-01-30 22:52:00,
2013-01-30 17:02:00,24.0,12.0,-100.00,NNW,330,17.0,24.0,60,0.00,,,-99.99,,2013-01-30 23:02:00,
2013-01-30 17:12:00,23.0,12.0,-100.00,NNW,335,15.0,22.0,60,0.00,,,-99.99,,2013-01-30 23:12:00,
2013-01-30 17:22:00,23.0,11.0,-100.00,NNW,340,14.0,20.0,60,0.00,,,-99.99,,2013-01-30 23:22:00,
2013-01-30 17:32:00,23.0,12.0,-100.00,NNW,330,11.0,14.0,61,0.00,,,-99.99,,2013-01-30 23:32:00,
2013-01-30 17:42:00,23.0,12.0,-100.00,NNW,330,11.0,14.0,61,0.00,,,-99.99,,2013-01-30 23:42:00,
2013-01-30 17:52:00,23.0,12.0,-100.00,NNW,330,9.0,12.0,61,0.00,,,-99.99,,2013-01-30 23:52:00,
2013-01-30 18:02:00,23.0,12.0,-100.00,NNW,330,9.0,12.0,61,0.00,,,-99.99,,2013-01-31 00:02:00,
2013-01-30 18:11:00,24.0,12.0,-100.00,NNW,330,12.0,14.0,61,0.00,,,-99.99,,2013-01-31 00:11:00,
2013-01-30 18:21:00,24.0,13.0,-100.00,NW,315,14.0,19.0,61,0.00,,,-99.99,,2013-01-31 00:21:00,
2013-01-30 18:32:00,24.0,12.0,-100.00,NW,315,13.0,19.0,61,0.00,,,-99.99,,2013-01-31 00:32:00,
2013-01-30 18:42:00,24.0,12.0,-100.00,NW,315,13.0,19.0,61,0.00,,,-99.99,,2013-01-31 00:42:00,
2013-01-30 18:52:00,23.0,12.0,-100.00,NW,315,12.0,15.0,62,0.00,,,-99.99,,2013-01-31 00:52:00,
2013-01-30 19:02:00,23.0,12.0,-100.00,NW,315,12.0,15.0,62,0.00,,,-99.99,,2013-01-31 01:02:00,
2013-01-30 19:11:00,23.0,12.0,-100.00,NW,315,12.0,16.0,62,0.00,,,-99.99,,2013-01-31 01:11:00,
2013-01-30 19:21:00,23.0,12.0,-100.00,WNW,300,7.0,15.0,62,0.00,,,-99.99,,2013-01-31 01:21:00,
2013-01-30 19:31:00,23.0,12.0,-100.00,WNW,300,7.0,15.0,62,0.00,,,-99.99,,2013-01-31 01:31:00,
2013-01-30 19:41:00,23.0,12.0,-100.00,WNW,300,7.0,15.0,62,0.00,,,-99.99,,2013-01-31 01:41:00,
2013-01-30 19:52:00,23.0,12.0,-100.00,WNW,300,7.0,15.0,62,0.00,,,-99.99,,2013-01-31 01:52:00,
2013-01-30 20:01:00,23.0,12.0,-100.00,WNW,300,7.0,15.0,62,0.00,,,-99.99,,2013-01-31 02:01:00,
2013-01-30 21:22:00,18.0,10.0,-100.00,West,280,10.0,12.0,70,0.00,,,-99.99,,2013-01-31 03:22:00,
2013-01-30 21:32:00,18.0,10.0,-100.00,WNW,285,8.0,10.0,70,0.00,,,-99.99,,2013-01-31 03:32:00,
2013-01-30 21:42:00,18.0,10.0,-100.00,WNW,285,8.0,10.0,70,0.00,,,-99.99,,2013-01-31 03:42:00,
2013-01-30 21:52:00,17.0,10.0,-100.00,WNW,285,7.0,9.0,72,0.00,,,-99.99,,2013-01-31 03:52:00,
2013-01-30 22:02:00,17.0,10.0,-100.00,WNW,285,7.0,9.0,72,0.00,,,-99.99,,2013-01-31 04:02:00,
2013-01-30 22:11:00,17.0,10.0,-100.00,West,280,8.0,9.0,72,0.00,,,-99.99,,2013-01-31 04:11:00,
2013-01-30 22:22:00,17.0,10.0,-100.00,WNW,285,7.0,9.0,73,0.00,,,-99.99,,2013-01-31 04:22:00,
2013-01-30 22:31:00,16.0,9.0,-100.00,NW,315,6.0,7.0,74,0.00,,,-99.99,,2013-01-31 04:31:00,
2013-01-30 22:41:00,16.0,9.0,-100.00,NW,315,6.0,7.0,74,0.00,,,-99.99,,2013-01-31 04:41:00,
2013-01-30 22:51:00,15.0,9.0,-100.00,NNW,330,6.0,7.0,75,0.00,,,-99.99,,2013-01-31 04:51:00,
2013-01-30 23:03:00,15.0,9.0,-100.00,NNW,330,6.0,7.0,75,0.00,,,-99.99,,2013-01-31 05:03:00,
2013-01-30 23:11:00,15.0,9.0,-100.00,NNW,330,6.0,7.0,75,0.00,,,-99.99,,2013-01-31 05:11:00,
2013-01-30 23:22:00,14.0,8.0,-100.00,NW,325,6.0,7.0,76,0.00,,,-99.99,,2013-01-31 05:22:00,
2013-01-30 23:32:00,14.0,8.0,-100.00,NW,325,6.0,7.0,76,0.00,,,-99.99,,2013-01-31 05:32:00,
2013-01-30 23:41:00,16.0,10.0,-100.00,NW,320,6.0,7.0,77,0.00,,,-99.99,,2013-01-31 05:41:00,
2013-01-30 23:52:00,16.0,10.0,-100.00,NW,320,6.0,7.0,77,0.00,,,-99.99,,2013-01-31 05:52:00,